createdAt,value
2022-12-18T00:00:15.743Z,40.20
2022-12-18T00:02:44.208Z,37.47
2022-12-18T00:05:13.243Z,39.37
2022-12-18T00:07:41.665Z,38.03
2022-12-18T00:10:10.989Z,37.00
2022-12-18T00:12:45.108Z,37.50
2022-12-18T00:15:13.407Z,39.87
2022-12-18T00:17:41.812Z,36.10
2022-12-18T00:20:11.748Z,34.60
2022-12-18T00:22:40.035Z,41.67
2022-12-18T00:25:09.349Z,37.20
2022-12-18T00:27:37.612Z,37.43
2022-12-18T00:30:09.079Z,39.80
2022-12-18T00:32:38.067Z,39.83
2022-12-18T00:35:07.584Z,42.17
2022-12-18T00:37:36.372Z,37.83
2022-12-18T00:40:05.546Z,40.27
2022-12-18T00:42:51.333Z,35.43
2022-12-18T00:45:21.019Z,34.97
2022-12-18T00:47:49.300Z,35.83
2022-12-18T00:50:17.849Z,43.73
2022-12-18T00:52:46.159Z,40.57
2022-12-18T00:55:15.114Z,41.57
2022-12-18T00:57:43.760Z,41.53
2022-12-18T01:00:15.885Z,39.10
2022-12-18T01:02:45.751Z,38.30
2022-12-18T01:05:15.906Z,36.73
2022-12-18T01:07:44.329Z,36.73
2022-12-18T01:10:14.898Z,35.07
2022-12-18T01:12:44.023Z,38.30
2022-12-18T01:15:14.614Z,36.47
2022-12-18T01:17:42.984Z,36.10
2022-12-18T01:20:14.870Z,40.63
2022-12-18T01:22:43.169Z,35.60
2022-12-18T01:25:11.546Z,38.43
2022-12-18T01:27:39.800Z,35.93
2022-12-18T01:30:09.834Z,37.60
2022-12-18T01:32:38.141Z,35.07
2022-12-18T01:35:08.061Z,37.40
2022-12-18T01:37:37.724Z,38.40
2022-12-18T01:40:08.066Z,35.73
2022-12-18T01:42:36.380Z,37.23
2022-12-18T01:45:10.856Z,34.20
2022-12-18T01:47:43.661Z,35.00
2022-12-18T01:50:18.555Z,33.97
2022-12-18T01:52:52.476Z,34.97
2022-12-18T01:55:25.095Z,36.10
2022-12-18T01:57:56.756Z,33.83
2022-12-18T02:00:26.230Z,37.10
2022-12-18T02:02:55.361Z,32.33
2022-12-18T02:05:36.121Z,37.27
2022-12-18T02:08:12.616Z,38.07
2022-12-18T02:10:49.804Z,33.87
2022-12-18T02:13:24.215Z,33.67
2022-12-18T02:16:02.464Z,34.70
2022-12-18T02:18:35.801Z,31.00
2022-12-18T02:21:15.880Z,32.17
2022-12-18T02:23:53.266Z,33.67
2022-12-18T02:26:28.979Z,33.03
2022-12-18T02:29:02.950Z,34.40
2022-12-18T02:31:36.732Z,27.83
2022-12-18T02:34:08.944Z,36.47
2022-12-18T02:36:41.264Z,37.63
2022-12-18T02:39:13.248Z,35.80
2022-12-18T02:41:43.020Z,33.53
2022-12-18T02:44:14.592Z,33.67
2022-12-18T02:46:45.864Z,28.17
2022-12-18T02:49:33.086Z,34.30
2022-12-18T02:52:09.968Z,34.50
2022-12-18T02:54:54.560Z,30.07
2022-12-18T02:57:36.315Z,31.93
2022-12-18T03:00:09.697Z,35.90
2022-12-18T03:02:45.748Z,34.33
2022-12-18T03:05:19.687Z,34.90
2022-12-18T03:07:54.963Z,33.93
2022-12-18T03:10:30.580Z,32.13
2022-12-18T03:13:07.188Z,32.27
2022-12-18T03:15:40.400Z,35.53
2022-12-18T03:18:13.879Z,36.40
2022-12-18T03:20:45.876Z,34.20
2022-12-18T03:23:19.371Z,31.67
2022-12-18T03:25:48.368Z,34.00
2022-12-18T03:28:22.843Z,36.07
2022-12-18T03:30:57.321Z,32.27
2022-12-18T03:33:32.045Z,36.73
2022-12-18T03:36:00.276Z,33.87
2022-12-18T03:38:28.599Z,35.00
2022-12-18T03:41:03.827Z,33.87
2022-12-18T03:43:45.393Z,31.40
2022-12-18T03:46:20.653Z,28.60
2022-12-18T03:48:54.048Z,35.47
2022-12-18T03:51:29.923Z,34.30
2022-12-18T03:54:02.615Z,29.70
2022-12-18T03:56:34.628Z,29.07
2022-12-18T03:59:06.563Z,33.40
2022-12-18T04:01:40.890Z,32.70
2022-12-18T04:04:11.713Z,33.50
2022-12-18T04:06:41.007Z,38.17
2022-12-18T04:09:09.607Z,35.10
2022-12-18T04:11:37.971Z,32.27
2022-12-18T04:14:07.772Z,34.77
2022-12-18T04:16:36.800Z,38.00
2022-12-18T04:19:05.720Z,37.47
2022-12-18T04:21:34.198Z,35.57
2022-12-18T04:24:02.554Z,38.90
2022-12-18T04:26:30.779Z,37.93
2022-12-18T04:28:58.956Z,38.23
2022-12-18T04:31:28.951Z,39.07
2022-12-18T04:33:57.245Z,37.50
2022-12-18T04:36:25.474Z,40.73
2022-12-18T04:38:53.692Z,35.23
2022-12-18T04:41:21.912Z,31.47
2022-12-18T04:43:50.137Z,38.50
2022-12-18T04:46:18.541Z,36.13
2022-12-18T04:48:49.418Z,41.23
2022-12-18T04:51:20.850Z,37.33
2022-12-18T04:53:53.080Z,33.07
2022-12-18T04:56:21.486Z,30.60
2022-12-18T04:58:49.900Z,32.53
2022-12-18T05:01:20.339Z,39.23
2022-12-18T05:03:50.122Z,33.80
2022-12-18T05:06:18.379Z,32.20
2022-12-18T05:08:46.738Z,42.83
2022-12-18T05:11:17.730Z,36.20
2022-12-18T05:13:46.681Z,39.83
2022-12-18T05:16:16.299Z,35.87
2022-12-18T05:18:44.645Z,37.50
2022-12-18T05:21:14.340Z,37.80
2022-12-18T05:23:43.087Z,33.90
2022-12-18T05:26:18.178Z,32.93
2022-12-18T05:28:46.929Z,33.37
2022-12-18T05:31:15.668Z,34.43
2022-12-18T05:33:44.274Z,34.00
2022-12-18T05:36:14.131Z,34.17
2022-12-18T05:38:42.788Z,32.40
2022-12-18T05:41:12.033Z,32.57
2022-12-18T05:43:41.934Z,33.93
2022-12-18T05:46:13.965Z,39.43
2022-12-18T05:48:42.494Z,35.20
2022-12-18T05:51:15.434Z,34.73
2022-12-18T05:53:44.810Z,35.70
2022-12-18T05:56:15.760Z,36.67
2022-12-18T05:58:44.342Z,38.67
2022-12-18T06:01:15.792Z,36.90
2022-12-18T06:03:44.396Z,41.60
2022-12-18T06:06:19.867Z,37.70
2022-12-18T06:08:48.790Z,37.10
2022-12-18T06:11:21.460Z,34.93
2022-12-18T06:13:57.958Z,34.90
2022-12-18T06:16:27.474Z,33.27
2022-12-18T06:18:55.941Z,36.73
2022-12-18T06:21:25.564Z,37.20
2022-12-18T06:23:53.852Z,38.17
2022-12-18T06:26:27.596Z,37.13
2022-12-18T06:28:56.493Z,36.90
2022-12-18T06:31:24.949Z,38.00
2022-12-18T06:33:53.554Z,36.90
2022-12-18T06:36:22.337Z,35.90
2022-12-18T06:38:51.989Z,38.60
2022-12-18T06:41:22.921Z,34.50
2022-12-18T06:43:52.240Z,33.20
2022-12-18T06:46:22.823Z,35.10
2022-12-18T06:48:52.020Z,36.70
2022-12-18T06:51:22.607Z,41.37
2022-12-18T06:53:52.362Z,39.37
2022-12-18T06:56:20.768Z,36.73
2022-12-18T06:58:49.103Z,31.80
2022-12-18T07:01:17.440Z,30.70
2022-12-18T07:03:46.109Z,30.40
2022-12-18T07:06:19.829Z,24.90
2022-12-18T07:08:48.939Z,25.57
2022-12-18T07:11:19.540Z,32.67
2022-12-18T07:13:48.699Z,26.23
2022-12-18T07:16:24.824Z,28.50
2022-12-18T07:18:54.477Z,31.00
2022-12-18T07:21:23.756Z,25.63
2022-12-18T07:23:52.367Z,32.20
2022-12-18T07:26:23.409Z,37.27
2022-12-18T07:28:52.545Z,33.03
2022-12-18T07:31:23.631Z,29.10
2022-12-18T07:33:52.316Z,28.43
2022-12-18T07:36:28.483Z,27.67
2022-12-18T07:38:57.049Z,28.93
2022-12-18T07:41:26.686Z,29.67
2022-12-18T07:43:54.945Z,30.73
2022-12-18T07:46:23.474Z,26.53
2022-12-18T07:48:51.869Z,26.17
2022-12-18T07:51:20.991Z,21.17
2022-12-18T07:53:52.413Z,22.87
2022-12-18T07:56:29.998Z,23.80
2022-12-18T07:59:08.364Z,28.33
2022-12-18T08:01:36.801Z,29.77
2022-12-18T08:04:06.062Z,23.33
2022-12-18T08:06:34.479Z,32.10
2022-12-18T08:09:02.826Z,21.37
2022-12-18T08:11:31.311Z,22.63
2022-12-18T08:14:00.898Z,23.57
2022-12-18T08:16:29.357Z,23.43
2022-12-18T08:18:57.654Z,26.67
2022-12-18T08:21:28.810Z,25.43
2022-12-18T08:23:59.237Z,29.50
2022-12-18T08:26:30.388Z,27.33
2022-12-18T08:29:01.679Z,27.53
2022-12-18T08:31:32.024Z,29.80
2022-12-18T08:34:00.548Z,30.03
2022-12-18T08:36:29.042Z,25.40
2022-12-18T08:38:57.311Z,27.03
2022-12-18T08:41:25.819Z,29.93
2022-12-18T08:44:11.745Z,25.20
2022-12-18T08:46:44.262Z,25.30
2022-12-18T08:49:13.637Z,26.40
2022-12-18T08:51:42.435Z,26.07
2022-12-18T08:54:14.856Z,26.50
2022-12-18T08:56:43.205Z,27.60
2022-12-18T08:59:18.828Z,27.63
2022-12-18T09:01:49.651Z,24.33
2022-12-18T09:04:18.254Z,27.33
2022-12-18T09:06:46.529Z,27.10
2022-12-18T09:09:14.838Z,31.93
2022-12-18T09:11:43.254Z,30.07
2022-12-18T09:14:12.313Z,26.17
2022-12-18T09:16:40.674Z,29.03
2022-12-18T09:19:11.711Z,26.90
2022-12-18T09:21:44.806Z,31.43
2022-12-18T09:24:17.444Z,30.00
2022-12-18T09:26:47.101Z,23.47
2022-12-18T09:29:16.375Z,29.10
2022-12-18T09:31:47.160Z,29.03
2022-12-18T09:34:16.765Z,31.27
2022-12-18T09:36:45.250Z,28.00
2022-12-18T09:39:13.474Z,34.20
2022-12-18T09:41:54.587Z,29.20
2022-12-18T09:44:27.612Z,32.70
2022-12-18T09:47:13.177Z,33.97
2022-12-18T09:49:46.551Z,34.40
2022-12-18T09:52:21.958Z,28.57
2022-12-18T09:54:56.740Z,33.10
2022-12-18T09:57:26.752Z,32.17
2022-12-18T09:59:59.212Z,32.53
2022-12-18T10:02:29.027Z,28.10
2022-12-18T10:05:12.844Z,30.97
2022-12-18T10:07:59.625Z,32.80
2022-12-18T10:10:40.899Z,31.63
2022-12-18T10:13:20.593Z,33.60
2022-12-18T10:16:05.739Z,32.03
2022-12-18T10:19:16.950Z,30.23
2022-12-18T10:21:55.498Z,30.53
2022-12-18T10:24:33.455Z,36.60
2022-12-18T10:27:16.941Z,32.67
2022-12-18T10:29:47.376Z,29.37
2022-12-18T10:32:21.521Z,29.77
2022-12-18T10:34:55.352Z,28.30
2022-12-18T10:37:31.693Z,33.13
2022-12-18T10:40:21.930Z,29.53
2022-12-18T10:43:07.529Z,32.60
2022-12-18T10:45:36.064Z,30.70
2022-12-18T10:48:05.787Z,34.10
2022-12-18T10:51:09.720Z,30.27
2022-12-18T10:53:30.468Z,29.87
2022-12-18T10:56:05.205Z,31.17
2022-12-18T10:58:35.825Z,25.30
2022-12-18T11:01:12.570Z,22.40
2022-12-18T11:03:43.301Z,25.43
2022-12-18T11:06:14.676Z,28.43
2022-12-18T11:08:48.065Z,27.40
2022-12-18T11:11:24.058Z,26.07
2022-12-18T11:14:01.901Z,29.90
2022-12-18T11:16:32.694Z,25.30
2022-12-18T11:19:25.239Z,24.97
2022-12-18T11:21:53.818Z,25.37
2022-12-18T11:24:30.296Z,24.77
2022-12-18T11:27:01.367Z,22.60
2022-12-18T11:29:46.446Z,23.17
2022-12-18T11:32:36.491Z,22.87
2022-12-18T11:35:14.543Z,26.13
2022-12-18T11:37:49.677Z,21.73
2022-12-18T11:40:24.636Z,25.00
2022-12-18T11:43:00.440Z,32.07
2022-12-18T11:45:32.170Z,25.60
2022-12-18T11:48:07.379Z,26.70
2022-12-18T11:50:48.808Z,22.33
2022-12-18T11:53:17.154Z,23.27
2022-12-18T11:55:59.305Z,23.67
2022-12-18T11:58:45.287Z,18.93
2022-12-18T12:01:32.702Z,23.07
2022-12-18T12:04:39.988Z,24.77
2022-12-18T12:07:25.444Z,25.37
2022-12-18T12:10:04.029Z,24.87
2022-12-18T12:12:49.263Z,24.60
2022-12-18T12:15:32.829Z,26.13
2022-12-18T12:18:11.675Z,24.80
2022-12-18T12:20:52.366Z,26.27
2022-12-18T12:23:34.957Z,22.97
2022-12-18T12:26:08.662Z,24.30
2022-12-18T12:29:10.269Z,25.23
2022-12-18T12:32:04.213Z,23.20
2022-12-18T12:34:46.356Z,28.53
2022-12-18T12:37:27.966Z,27.07
2022-12-18T12:39:57.266Z,28.73
2022-12-18T12:42:50.999Z,25.97
2022-12-18T12:45:25.779Z,30.00
2022-12-18T12:47:55.615Z,27.80
2022-12-18T12:50:25.715Z,27.70
2022-12-18T12:52:56.837Z,27.80
2022-12-18T12:55:27.856Z,27.20
2022-12-18T12:58:08.063Z,25.27
2022-12-18T13:00:47.682Z,30.23
2022-12-18T13:03:32.568Z,25.57
2022-12-18T13:06:07.480Z,27.77
2022-12-18T13:08:56.057Z,29.10
2022-12-18T13:12:03.009Z,26.80
2022-12-18T13:14:34.976Z,32.53
2022-12-18T13:17:32.210Z,25.13
2022-12-18T13:20:14.512Z,25.47
2022-12-18T13:22:48.193Z,26.27
2022-12-18T13:25:40.509Z,29.43
2022-12-18T13:28:13.633Z,22.40
2022-12-18T13:31:01.545Z,21.17
2022-12-18T13:36:40.582Z,25.63
2022-12-18T13:39:35.320Z,22.03
2022-12-18T13:43:00.562Z,22.13
2022-12-18T13:45:48.202Z,20.30
2022-12-18T13:48:26.265Z,20.67
2022-12-18T13:51:01.539Z,25.07
2022-12-18T13:53:36.533Z,22.30
2022-12-18T13:56:06.253Z,27.20
2022-12-18T13:58:35.710Z,26.50
2022-12-18T14:01:05.675Z,28.93
2022-12-18T14:03:34.167Z,24.40
2022-12-18T14:06:08.291Z,25.37
2022-12-18T14:08:41.941Z,21.63
2022-12-18T14:11:23.257Z,27.23
2022-12-18T14:13:52.541Z,23.57
2022-12-18T14:16:20.920Z,25.00
2022-12-18T14:18:55.462Z,24.67
2022-12-18T14:21:30.480Z,24.33
2022-12-18T14:24:17.279Z,25.77
2022-12-18T14:26:50.318Z,23.23
2022-12-18T14:29:28.424Z,22.20
2022-12-18T14:32:17.467Z,31.37
2022-12-18T14:34:47.237Z,24.97
2022-12-18T14:37:19.304Z,22.97
2022-12-18T14:39:59.295Z,23.23
2022-12-18T14:42:29.213Z,25.67
2022-12-18T14:45:41.728Z,32.47
2022-12-18T14:48:22.851Z,29.77
2022-12-18T14:51:03.359Z,20.93
2022-12-18T14:53:40.502Z,20.87
2022-12-18T14:56:19.712Z,23.03
2022-12-18T14:58:50.792Z,24.50
2022-12-18T15:01:26.016Z,30.63
2022-12-18T15:03:55.849Z,28.97
2022-12-18T15:06:34.982Z,25.67
2022-12-18T15:09:08.498Z,22.37
2022-12-18T15:11:48.722Z,20.77
2022-12-18T15:14:41.949Z,23.33
2022-12-18T15:17:20.189Z,23.47
2022-12-18T15:19:51.015Z,22.20
2022-12-18T15:22:27.842Z,19.40
2022-12-18T15:24:59.315Z,23.00
2022-12-18T15:27:35.787Z,20.00
2022-12-18T15:30:23.778Z,18.93
2022-12-18T15:33:19.114Z,23.03
2022-12-18T15:35:47.438Z,18.03
2022-12-18T15:38:15.693Z,20.00
2022-12-18T15:40:45.321Z,21.17
2022-12-18T15:43:31.295Z,19.47
2022-12-18T15:46:00.227Z,20.17
2022-12-18T15:48:28.614Z,20.10
2022-12-18T15:50:59.491Z,17.70
2022-12-18T15:53:32.655Z,16.77
2022-12-18T15:56:19.917Z,21.43
2022-12-18T15:58:48.757Z,22.10
2022-12-18T16:01:30.183Z,23.87
2022-12-18T16:03:58.824Z,25.90
2022-12-18T16:06:30.496Z,21.13
2022-12-18T16:09:04.948Z,25.87
2022-12-18T16:11:41.173Z,22.20
2022-12-18T16:14:18.998Z,22.13
2022-12-18T16:16:47.999Z,20.90
2022-12-18T16:19:17.091Z,23.23
2022-12-18T16:21:45.986Z,18.10
2022-12-18T16:24:18.123Z,23.80
2022-12-18T16:26:47.894Z,20.43
2022-12-18T16:29:17.058Z,21.80
2022-12-18T16:31:45.511Z,21.80
2022-12-18T16:34:23.189Z,23.93
2022-12-18T16:36:54.333Z,21.70
2022-12-18T16:39:23.345Z,23.90
2022-12-18T16:41:54.725Z,24.77
2022-12-18T16:44:24.323Z,26.70
2022-12-18T16:46:52.613Z,27.67
2022-12-18T16:49:22.437Z,25.57
2022-12-18T16:51:50.788Z,23.97
2022-12-18T16:54:19.676Z,23.03
2022-12-18T16:56:49.890Z,29.20
2022-12-18T16:59:20.267Z,25.30
2022-12-18T17:01:48.952Z,23.33
2022-12-18T17:04:18.649Z,25.37
2022-12-18T17:06:51.733Z,23.67
2022-12-18T17:09:23.797Z,26.80
2022-12-18T17:11:52.151Z,23.33
2022-12-18T17:14:24.881Z,30.07
2022-12-18T17:17:19.611Z,31.60
2022-12-18T17:19:41.980Z,30.50
2022-12-18T17:22:10.292Z,27.03
2022-12-18T17:24:38.569Z,31.93
2022-12-18T17:27:08.573Z,31.37
2022-12-18T17:29:41.268Z,31.40
2022-12-18T17:32:12.409Z,33.60
2022-12-18T17:34:40.870Z,35.00
2022-12-18T17:37:09.433Z,37.93
2022-12-18T17:39:38.198Z,40.60
2022-12-18T17:42:06.813Z,37.40
2022-12-18T17:44:37.757Z,33.77
2022-12-18T17:47:06.653Z,36.30
2022-12-18T17:49:34.969Z,30.47
2022-12-18T17:52:03.241Z,28.00
2022-12-18T17:54:31.682Z,26.67
2022-12-18T17:57:00.008Z,24.67
2022-12-18T17:59:28.394Z,28.40
2022-12-18T18:01:58.243Z,34.93
2022-12-18T18:04:27.488Z,33.30
2022-12-18T18:06:55.726Z,27.47
2022-12-18T18:09:24.033Z,33.90
2022-12-18T18:12:09.760Z,31.80
2022-12-18T18:14:38.144Z,24.43
2022-12-18T18:17:08.504Z,27.13
2022-12-18T18:19:36.967Z,30.83
2022-12-18T18:22:07.247Z,27.90
2022-12-18T18:24:35.525Z,27.47
2022-12-18T18:27:03.775Z,25.77
2022-12-18T18:29:32.206Z,27.03
2022-12-18T18:32:00.767Z,31.57
2022-12-18T18:34:32.953Z,34.90
2022-12-18T18:37:01.360Z,46.07
2022-12-18T18:39:30.428Z,30.57
2022-12-18T18:41:59.362Z,34.63
2022-12-18T18:44:27.752Z,32.43
2022-12-18T18:46:57.623Z,31.43
2022-12-18T18:49:27.849Z,35.50
2022-12-18T18:52:00.279Z,32.13
2022-12-18T18:54:28.665Z,38.10
2022-12-18T18:57:19.972Z,62.67
2022-12-18T18:59:47.410Z,45.40
2022-12-18T19:02:17.416Z,47.60
2022-12-18T19:04:46.892Z,41.13
2022-12-18T19:07:20.336Z,37.83
2022-12-18T19:10:04.559Z,33.60
2022-12-18T19:12:52.470Z,32.97
2022-12-18T19:15:21.656Z,36.07
2022-12-18T19:17:50.032Z,32.93
2022-12-18T19:20:18.775Z,38.40
2022-12-18T19:22:55.380Z,30.77
2022-12-18T19:25:38.112Z,31.13
2022-12-18T19:28:13.487Z,33.77
2022-12-18T19:30:57.880Z,37.57
2022-12-18T19:33:44.595Z,32.60
2022-12-18T19:36:16.836Z,32.43
2022-12-18T19:38:47.429Z,35.70
2022-12-18T19:41:17.883Z,32.67
2022-12-18T19:43:47.445Z,31.33
2022-12-18T19:46:18.641Z,31.80
2022-12-18T19:48:47.413Z,29.20
2022-12-18T19:51:18.708Z,31.77
2022-12-18T19:53:50.548Z,33.37
2022-12-18T19:56:25.000Z,31.30
2022-12-18T19:58:54.290Z,31.73
2022-12-18T20:01:24.868Z,28.80
2022-12-18T20:03:54.493Z,29.23
2022-12-18T20:06:28.949Z,33.53
2022-12-18T20:09:01.862Z,35.73
2022-12-18T20:11:30.508Z,31.03
2022-12-18T20:14:02.269Z,32.87
2022-12-18T20:16:30.689Z,30.90
2022-12-18T20:19:00.050Z,31.83
2022-12-18T20:21:28.703Z,31.47
2022-12-18T20:24:00.013Z,31.20
2022-12-18T20:26:29.411Z,31.27
2022-12-18T20:28:58.000Z,32.03
2022-12-18T20:31:26.452Z,30.70
2022-12-18T20:33:59.650Z,31.30
2022-12-18T20:36:30.635Z,33.47
2022-12-18T20:39:01.586Z,27.80
2022-12-18T20:41:37.473Z,30.60
2022-12-18T20:44:21.991Z,33.47
2022-12-18T20:46:53.348Z,32.90
2022-12-18T20:49:21.706Z,36.67
2022-12-18T20:51:52.746Z,28.30
2022-12-18T20:54:23.155Z,33.90
2022-12-18T20:56:52.123Z,29.97
2022-12-18T20:59:20.530Z,30.93
2022-12-18T21:01:49.416Z,31.50
2022-12-18T21:04:19.162Z,34.90
2022-12-18T21:06:53.027Z,32.60
2022-12-18T21:09:24.159Z,33.83
2022-12-18T21:12:21.364Z,31.90
2022-12-18T21:14:49.634Z,31.80
2022-12-18T21:17:18.503Z,33.07
2022-12-18T21:19:46.788Z,31.60
2022-12-18T21:22:16.299Z,33.67
2022-12-18T21:24:46.154Z,33.73
2022-12-18T21:27:14.447Z,32.80
2022-12-18T21:29:47.061Z,35.70
2022-12-18T21:32:15.981Z,29.27
2022-12-18T21:34:48.032Z,34.07
2022-12-18T21:37:17.022Z,32.30
2022-12-18T21:39:48.585Z,31.80
2022-12-18T21:42:34.647Z,31.63
2022-12-18T21:45:02.949Z,31.60
2022-12-18T21:47:31.283Z,33.83
2022-12-18T21:49:59.592Z,29.70
2022-12-18T21:52:32.500Z,30.00
2022-12-18T21:55:09.113Z,31.53
2022-12-18T21:57:39.181Z,32.27
2022-12-18T22:00:18.538Z,32.63
2022-12-18T22:03:03.729Z,32.33
2022-12-18T22:05:36.742Z,33.13
2022-12-18T22:08:06.674Z,32.03
2022-12-18T22:10:36.877Z,29.37
2022-12-18T22:13:05.961Z,35.20
2022-12-18T22:15:34.670Z,32.73
2022-12-18T22:18:02.950Z,32.07
2022-12-18T22:20:31.196Z,39.90
2022-12-18T22:23:04.224Z,42.07
2022-12-18T22:25:39.233Z,35.90
2022-12-18T22:28:25.512Z,34.20
2022-12-18T22:30:59.113Z,36.77
2022-12-18T22:33:28.829Z,30.83
2022-12-18T22:35:57.327Z,32.23
2022-12-18T22:38:25.593Z,33.67
2022-12-18T22:40:56.286Z,34.17
2022-12-18T22:43:24.713Z,33.23
2022-12-18T22:45:52.909Z,31.00
2022-12-18T22:48:21.810Z,30.53
2022-12-18T22:50:50.049Z,32.53
2022-12-18T22:53:19.352Z,28.17
2022-12-18T22:55:47.750Z,33.77
2022-12-18T22:58:17.337Z,29.80
2022-12-18T23:00:45.614Z,31.53
2022-12-18T23:03:13.912Z,31.67
2022-12-18T23:05:42.187Z,34.33
2022-12-18T23:08:10.437Z,35.50
2022-12-18T23:10:39.484Z,33.77
2022-12-18T23:13:07.791Z,30.53
2022-12-18T23:15:43.268Z,29.27
2022-12-18T23:18:11.550Z,33.77
2022-12-18T23:20:40.021Z,34.83
2022-12-18T23:23:08.471Z,36.30
2022-12-18T23:25:36.812Z,36.40
2022-12-18T23:28:06.058Z,31.83
2022-12-18T23:30:36.317Z,35.17
2022-12-18T23:33:04.714Z,35.87
2022-12-18T23:35:33.149Z,35.83
2022-12-18T23:38:01.394Z,33.43
2022-12-18T23:40:30.551Z,31.23
2022-12-18T23:43:00.197Z,34.17
2022-12-18T23:45:28.670Z,32.57
2022-12-18T23:47:58.382Z,31.40
2022-12-18T23:50:29.580Z,30.40
2022-12-18T23:53:05.054Z,31.27
2022-12-18T23:55:39.620Z,35.90
2022-12-18T23:58:09.019Z,34.90
